sensor_id;sensor_type;location;lat;lon;timestamp;pressure;altitude;pressure_sealevel;temperature;humidity
51245;BME280;37840;47.562;18.738;2023-04-06T00:00:47;99943.06;;;0.57;55.21
51245;BME280;37840;47.562;18.738;2023-04-06T00:03:13;99939.50;;;0.59;55.36
51245;BME280;37840;47.562;18.738;2023-04-06T00:05:39;99931.59;;;0.63;55.58
51245;BME280;37840;47.562;18.738;2023-04-06T00:08:05;99929.94;;;0.60;55.34
51245;BME280;37840;47.562;18.738;2023-04-06T00:10:31;99927.25;;;0.61;55.31
51245;BME280;37840;47.562;18.738;2023-04-06T00:12:57;99929.25;;;0.53;55.54
51245;BME280;37840;47.562;18.738;2023-04-06T00:15:23;99931.75;;;0.56;55.00
51245;BME280;37840;47.562;18.738;2023-04-06T00:17:49;99930.91;;;0.56;54.65
51245;BME280;37840;47.562;18.738;2023-04-06T00:20:15;99934.53;;;0.50;55.02
51245;BME280;37840;47.562;18.738;2023-04-06T00:22:41;99929.34;;;0.49;55.42
51245;BME280;37840;47.562;18.738;2023-04-06T00:25:06;99936.28;;;0.51;55.80
51245;BME280;37840;47.562;18.738;2023-04-06T00:27:32;99925.03;;;0.48;55.20
51245;BME280;37840;47.562;18.738;2023-04-06T00:29:58;99932.78;;;0.51;55.29
51245;BME280;37840;47.562;18.738;2023-04-06T00:32:24;99929.41;;;0.47;55.21
51245;BME280;37840;47.562;18.738;2023-04-06T00:34:49;99929.59;;;0.39;55.12
51245;BME280;37840;47.562;18.738;2023-04-06T00:37:15;99923.69;;;0.31;54.57
51245;BME280;37840;47.562;18.738;2023-04-06T00:39:41;99923.03;;;0.23;55.57
51245;BME280;37840;47.562;18.738;2023-04-06T00:42:13;99921.38;;;0.20;55.90
51245;BME280;37840;47.562;18.738;2023-04-06T00:44:40;99920.56;;;0.17;56.36
51245;BME280;37840;47.562;18.738;2023-04-06T00:47:05;99916.38;;;0.11;56.65
51245;BME280;37840;47.562;18.738;2023-04-06T00:49:32;99913.06;;;0.05;56.97
51245;BME280;37840;47.562;18.738;2023-04-06T00:51:57;99912.97;;;0.08;57.32
51245;BME280;37840;47.562;18.738;2023-04-06T00:54:23;99909.75;;;-0.02;57.15
51245;BME280;37840;47.562;18.738;2023-04-06T00:56:49;99908.13;;;-0.06;58.10
51245;BME280;37840;47.562;18.738;2023-04-06T00:59:15;99913.34;;;-0.06;58.32
51245;BME280;37840;47.562;18.738;2023-04-06T01:01:41;99911.59;;;-0.07;58.15
51245;BME280;37840;47.562;18.738;2023-04-06T01:04:06;99908.16;;;-0.09;57.58
51245;BME280;37840;47.562;18.738;2023-04-06T01:06:32;99907.38;;;-0.13;57.92
51245;BME280;37840;47.562;18.738;2023-04-06T01:08:58;99909.13;;;-0.12;58.02
51245;BME280;37840;47.562;18.738;2023-04-06T01:11:23;99906.53;;;-0.13;57.38
51245;BME280;37840;47.562;18.738;2023-04-06T01:13:49;99914.47;;;-0.18;57.22
51245;BME280;37840;47.562;18.738;2023-04-06T01:16:15;99910.37;;;-0.28;57.05
51245;BME280;37840;47.562;18.738;2023-04-06T01:18:40;99913.03;;;-0.30;56.92
51245;BME280;37840;47.562;18.738;2023-04-06T01:21:07;99907.91;;;-0.34;56.75
51245;BME280;37840;47.562;18.738;2023-04-06T01:23:34;99913.31;;;-0.42;56.91
51245;BME280;37840;47.562;18.738;2023-04-06T01:26:00;99912.44;;;-0.43;56.91
51245;BME280;37840;47.562;18.738;2023-04-06T01:28:25;99903.75;;;-0.43;57.16
51245;BME280;37840;47.562;18.738;2023-04-06T01:30:51;99905.53;;;-0.44;57.25
51245;BME280;37840;47.562;18.738;2023-04-06T01:33:17;99907.31;;;-0.46;57.18
51245;BME280;37840;47.562;18.738;2023-04-06T01:35:42;99906.50;;;-0.49;57.20
51245;BME280;37840;47.562;18.738;2023-04-06T01:38:08;99900.44;;;-0.50;57.47
51245;BME280;37840;47.562;18.738;2023-04-06T01:40:34;99903.06;;;-0.51;57.34
51245;BME280;37840;47.562;18.738;2023-04-06T01:43:00;99903.06;;;-0.51;57.64
51245;BME280;37840;47.562;18.738;2023-04-06T01:45:25;99897.19;;;-0.59;57.38
51245;BME280;37840;47.562;18.738;2023-04-06T01:47:51;99893.66;;;-0.58;57.85
51245;BME280;37840;47.562;18.738;2023-04-06T01:50:17;99897.34;;;-0.67;57.49
51245;BME280;37840;47.562;18.738;2023-04-06T01:52:42;99893.94;;;-0.71;57.65
51245;BME280;37840;47.562;18.738;2023-04-06T01:55:08;99892.13;;;-0.67;58.04
51245;BME280;37840;47.562;18.738;2023-04-06T01:57:34;99888.66;;;-0.68;58.49
51245;BME280;37840;47.562;18.738;2023-04-06T02:00:00;99896.50;;;-0.68;58.54
51245;BME280;37840;47.562;18.738;2023-04-06T02:02:26;99888.59;;;-0.65;58.76
51245;BME280;37840;47.562;18.738;2023-04-06T02:04:51;99895.59;;;-0.67;58.85
51245;BME280;37840;47.562;18.738;2023-04-06T02:07:17;99893.84;;;-0.66;58.97
51245;BME280;37840;47.562;18.738;2023-04-06T02:09:43;99884.28;;;-0.66;58.45
51245;BME280;37840;47.562;18.738;2023-04-06T02:12:08;99887.03;;;-0.72;57.69
51245;BME280;37840;47.562;18.738;2023-04-06T02:14:34;99895.16;;;-0.86;56.97
51245;BME280;37840;47.562;18.738;2023-04-06T02:17:00;99892.03;;;-1.01;57.39
51245;BME280;37840;47.562;18.738;2023-04-06T02:19:25;99893.16;;;-1.15;56.29
51245;BME280;37840;47.562;18.738;2023-04-06T02:21:51;99889.78;;;-1.18;58.27
51245;BME280;37840;47.562;18.738;2023-04-06T02:24:17;99891.38;;;-1.13;58.71
51245;BME280;37840;47.562;18.738;2023-04-06T02:26:42;99890.41;;;-1.07;59.21
51245;BME280;37840;47.562;18.738;2023-04-06T02:29:08;99886.03;;;-1.07;59.98
51245;BME280;37840;47.562;18.738;2023-04-06T02:31:34;99886.16;;;-1.13;60.63
51245;BME280;37840;47.562;18.738;2023-04-06T02:34:00;99877.44;;;-1.12;59.84
51245;BME280;37840;47.562;18.738;2023-04-06T02:36:26;99884.31;;;-1.08;60.11
51245;BME280;37840;47.562;18.738;2023-04-06T02:38:52;99878.16;;;-1.05;60.14
51245;BME280;37840;47.562;18.738;2023-04-06T02:41:17;99881.69;;;-1.06;60.03
51245;BME280;37840;47.562;18.738;2023-04-06T02:43:43;99877.44;;;-1.12;60.07
51245;BME280;37840;47.562;18.738;2023-04-06T02:46:09;99874.84;;;-1.12;59.89
51245;BME280;37840;47.562;18.738;2023-04-06T02:48:35;99867.06;;;-1.15;59.68
51245;BME280;37840;47.562;18.738;2023-04-06T02:51:02;99863.53;;;-1.12;59.09
51245;BME280;37840;47.562;18.738;2023-04-06T02:53:28;99875.09;;;-1.26;58.99
51245;BME280;37840;47.562;18.738;2023-04-06T02:55:53;99868.28;;;-1.31;58.61
51245;BME280;37840;47.562;18.738;2023-04-06T02:58:23;99865.22;;;-1.52;59.40
51245;BME280;37840;47.562;18.738;2023-04-06T03:00:49;99863.53;;;-1.54;59.44
51245;BME280;37840;47.562;18.738;2023-04-06T03:03:14;99866.78;;;-1.45;59.42
51245;BME280;37840;47.562;18.738;2023-04-06T03:05:40;99859.75;;;-1.38;58.81
51245;BME280;37840;47.562;18.738;2023-04-06T03:08:06;99863.22;;;-1.39;58.51
51245;BME280;37840;47.562;18.738;2023-04-06T03:10:32;99860.03;;;-1.53;58.81
51245;BME280;37840;47.562;18.738;2023-04-06T03:12:57;99860.19;;;-1.61;59.24
51245;BME280;37840;47.562;18.738;2023-04-06T03:15:23;99860.12;;;-1.58;59.40
51245;BME280;37840;47.562;18.738;2023-04-06T03:17:49;99859.19;;;-1.55;59.32
51245;BME280;37840;47.562;18.738;2023-04-06T03:20:14;99860.94;;;-1.56;59.56
51245;BME280;37840;47.562;18.738;2023-04-06T03:22:40;99867.53;;;-1.83;60.91
51245;BME280;37840;47.562;18.738;2023-04-06T03:25:06;99862.22;;;-1.77;60.67
51245;BME280;37840;47.562;18.738;2023-04-06T03:27:32;99861.25;;;-1.71;60.67
51245;BME280;37840;47.562;18.738;2023-04-06T03:29:58;99856.03;;;-1.71;60.48
51245;BME280;37840;47.562;18.738;2023-04-06T03:32:23;99860.50;;;-1.78;59.83
51245;BME280;37840;47.562;18.738;2023-04-06T03:34:49;99858.75;;;-1.76;60.25
51245;BME280;37840;47.562;18.738;2023-04-06T03:37:15;99858.63;;;-1.70;60.20
51245;BME280;37840;47.562;18.738;2023-04-06T03:39:40;99867.28;;;-1.69;60.18
51245;BME280;37840;47.562;18.738;2023-04-06T03:42:06;99865.56;;;-1.70;60.51
51245;BME280;37840;47.562;18.738;2023-04-06T03:44:32;99870.72;;;-1.67;59.83
51245;BME280;37840;47.562;18.738;2023-04-06T03:46:57;99869.84;;;-1.66;59.97
51245;BME280;37840;47.562;18.738;2023-04-06T03:49:23;99871.50;;;-1.62;59.99
51245;BME280;37840;47.562;18.738;2023-04-06T03:51:49;99873.22;;;-1.61;60.24
51245;BME280;37840;47.562;18.738;2023-04-06T03:54:15;99876.12;;;-1.76;60.92
51245;BME280;37840;47.562;18.738;2023-04-06T03:56:40;99867.38;;;-1.74;61.16
51245;BME280;37840;47.562;18.738;2023-04-06T03:59:06;99869.81;;;-1.65;61.07
51245;BME280;37840;47.562;18.738;2023-04-06T04:01:32;99865.41;;;-1.61;60.76
51245;BME280;37840;47.562;18.738;2023-04-06T04:03:58;99865.34;;;-1.59;60.88
51245;BME280;37840;47.562;18.738;2023-04-06T04:06:23;99864.56;;;-1.61;61.28
51245;BME280;37840;47.562;18.738;2023-04-06T04:08:49;99876.59;;;-1.56;61.29
51245;BME280;37840;47.562;18.738;2023-04-06T04:11:15;99869.72;;;-1.60;61.36
51245;BME280;37840;47.562;18.738;2023-04-06T04:13:41;99864.56;;;-1.63;61.19
51245;BME280;37840;47.562;18.738;2023-04-06T04:16:06;99858.34;;;-1.57;61.15
51245;BME280;37840;47.562;18.738;2023-04-06T04:18:32;99872.09;;;-1.48;61.17
51245;BME280;37840;47.562;18.738;2023-04-06T04:20:58;99865.81;;;-1.39;60.87
51245;BME280;37840;47.562;18.738;2023-04-06T04:23:24;99867.56;;;-1.38;60.50
51245;BME280;37840;47.562;18.738;2023-04-06T04:25:49;99873.59;;;-1.36;60.55
51245;BME280;37840;47.562;18.738;2023-04-06T04:28:16;99879.69;;;-1.35;60.18
51245;BME280;37840;47.562;18.738;2023-04-06T04:30:42;99875.59;;;-1.49;59.58
51245;BME280;37840;47.562;18.738;2023-04-06T04:33:07;99874.97;;;-1.61;59.70
51245;BME280;37840;47.562;18.738;2023-04-06T04:35:33;99880.19;;;-1.61;59.81
51245;BME280;37840;47.562;18.738;2023-04-06T04:37:59;99874.84;;;-1.55;60.22
51245;BME280;37840;47.562;18.738;2023-04-06T04:40:24;99871.41;;;-1.57;60.30
51245;BME280;37840;47.562;18.738;2023-04-06T04:42:50;99869.56;;;-1.52;60.46
51245;BME280;37840;47.562;18.738;2023-04-06T04:45:18;99872.09;;;-1.49;60.61
51245;BME280;37840;47.562;18.738;2023-04-06T04:47:44;99876.47;;;-1.50;60.68
51245;BME280;37840;47.562;18.738;2023-04-06T04:50:10;99874.62;;;-1.45;60.86
51245;BME280;37840;47.562;18.738;2023-04-06T04:52:37;99870.13;;;-1.36;61.09
51245;BME280;37840;47.562;18.738;2023-04-06T04:55:03;99870.06;;;-1.33;60.47
51245;BME280;37840;47.562;18.738;2023-04-06T04:57:28;99861.31;;;-1.31;60.91
51245;BME280;37840;47.562;18.738;2023-04-06T04:59:54;99866.66;;;-1.37;61.17
51245;BME280;37840;47.562;18.738;2023-04-06T05:02:20;99865.72;;;-1.34;61.39
51245;BME280;37840;47.562;18.738;2023-04-06T05:04:46;99852.56;;;-1.28;61.24
51245;BME280;37840;47.562;18.738;2023-04-06T05:07:12;99851.47;;;-1.16;61.29
51245;BME280;37840;47.562;18.738;2023-04-06T05:09:38;99845.06;;;-1.03;61.22
51245;BME280;37840;47.562;18.738;2023-04-06T05:12:03;99842.19;;;-0.91;60.72
51245;BME280;37840;47.562;18.738;2023-04-06T05:14:29;99844.59;;;-0.82;60.51
51245;BME280;37840;47.562;18.738;2023-04-06T05:16:55;99842.75;;;-0.76;59.61
51245;BME280;37840;47.562;18.738;2023-04-06T05:19:20;99853.00;;;-0.70;61.20
51245;BME280;37840;47.562;18.738;2023-04-06T05:21:46;99850.25;;;-0.64;61.18
51245;BME280;37840;47.562;18.738;2023-04-06T05:24:12;99849.25;;;-0.57;61.00
51245;BME280;37840;47.562;18.738;2023-04-06T05:26:38;99847.50;;;-0.58;60.31
51245;BME280;37840;47.562;18.738;2023-04-06T05:29:04;99842.38;;;-0.61;60.22
51245;BME280;37840;47.562;18.738;2023-04-06T05:31:29;99843.13;;;-0.56;60.44
51245;BME280;37840;47.562;18.738;2023-04-06T05:33:56;99838.44;;;-0.43;60.61
51245;BME280;37840;47.562;18.738;2023-04-06T05:36:22;99831.97;;;-0.28;60.63
51245;BME280;37840;47.562;18.738;2023-04-06T05:38:47;99835.00;;;-0.11;60.67
51245;BME280;37840;47.562;18.738;2023-04-06T05:41:13;99826.94;;;-0.02;60.31
51245;BME280;37840;47.562;18.738;2023-04-06T05:43:39;99833.56;;;0.12;60.38
51245;BME280;37840;47.562;18.738;2023-04-06T05:46:05;99823.75;;;0.20;58.83
51245;BME280;37840;47.562;18.738;2023-04-06T05:48:30;99821.72;;;0.30;59.00
51245;BME280;37840;47.562;18.738;2023-04-06T05:50:56;99817.37;;;0.30;59.21
51245;BME280;37840;47.562;18.738;2023-04-06T05:53:22;99820.72;;;0.35;58.15
51245;BME280;37840;47.562;18.738;2023-04-06T05:55:48;99817.72;;;0.49;58.57
51245;BME280;37840;47.562;18.738;2023-04-06T05:58:13;99816.28;;;0.69;56.22
51245;BME280;37840;47.562;18.738;2023-04-06T06:00:39;99806.03;;;0.89;55.69
51245;BME280;37840;47.562;18.738;2023-04-06T06:03:05;99801.03;;;1.11;54.99
51245;BME280;37840;47.562;18.738;2023-04-06T06:05:31;99803.81;;;1.33;54.25
51245;BME280;37840;47.562;18.738;2023-04-06T06:07:57;99798.72;;;1.55;53.14
51245;BME280;37840;47.562;18.738;2023-04-06T06:10:22;99789.44;;;1.72;53.06
51245;BME280;37840;47.562;18.738;2023-04-06T06:12:48;99792.06;;;1.97;52.66
51245;BME280;37840;47.562;18.738;2023-04-06T06:15:14;99797.47;;;2.17;51.21
51245;BME280;37840;47.562;18.738;2023-04-06T06:17:39;99790.06;;;2.29;50.31
51245;BME280;37840;47.562;18.738;2023-04-06T06:20:08;99781.28;;;2.53;50.37
51245;BME280;37840;47.562;18.738;2023-04-06T06:22:34;99790.13;;;2.74;50.20
51245;BME280;37840;47.562;18.738;2023-04-06T06:25:00;99785.75;;;2.97;49.40
51245;BME280;37840;47.562;18.738;2023-04-06T06:27:26;99778.59;;;3.22;49.09
51245;BME280;37840;47.562;18.738;2023-04-06T06:29:51;99775.72;;;3.71;48.05
51245;BME280;37840;47.562;18.738;2023-04-06T06:32:17;99779.09;;;4.35;47.30
51245;BME280;37840;47.562;18.738;2023-04-06T06:34:43;99771.25;;;5.09;44.98
51245;BME280;37840;47.562;18.738;2023-04-06T06:37:09;99759.00;;;5.62;43.40
51245;BME280;37840;47.562;18.738;2023-04-06T06:39:35;99759.22;;;5.92;41.95
51245;BME280;37840;47.562;18.738;2023-04-06T06:42:00;99762.03;;;6.06;41.21
51245;BME280;37840;47.562;18.738;2023-04-06T06:44:27;99762.63;;;6.11;40.56
51245;BME280;37840;47.562;18.738;2023-04-06T06:46:52;99762.25;;;6.19;40.17
51245;BME280;37840;47.562;18.738;2023-04-06T06:49:18;99762.28;;;6.35;40.50
51245;BME280;37840;47.562;18.738;2023-04-06T06:51:44;99762.34;;;6.99;39.46
51245;BME280;37840;47.562;18.738;2023-04-06T06:54:11;99750.63;;;7.34;38.75
51245;BME280;37840;47.562;18.738;2023-04-06T06:56:38;99752.56;;;7.91;37.72
51245;BME280;37840;47.562;18.738;2023-04-06T06:59:04;99752.56;;;8.92;35.77
51245;BME280;37840;47.562;18.738;2023-04-06T07:01:32;99740.59;;;9.53;34.11
51245;BME280;37840;47.562;18.738;2023-04-06T07:03:58;99741.63;;;10.55;32.97
51245;BME280;37840;47.562;18.738;2023-04-06T07:06:23;99743.03;;;10.97;32.44
51245;BME280;37840;47.562;18.738;2023-04-06T07:08:49;99742.75;;;11.37;31.40
51245;BME280;37840;47.562;18.738;2023-04-06T07:11:15;99734.75;;;11.13;31.45
51245;BME280;37840;47.562;18.738;2023-04-06T07:13:41;99734.94;;;10.99;32.19
51245;BME280;37840;47.562;18.738;2023-04-06T07:16:07;99734.63;;;10.41;32.42
51245;BME280;37840;47.562;18.738;2023-04-06T07:18:33;99736.53;;;10.52;32.77
51245;BME280;37840;47.562;18.738;2023-04-06T07:20:59;99731.94;;;10.15;32.60
51245;BME280;37840;47.562;18.738;2023-04-06T07:23:24;99727.03;;;9.71;33.67
51245;BME280;37840;47.562;18.738;2023-04-06T07:25:50;99722.28;;;9.76;33.60
51245;BME280;37840;47.562;18.738;2023-04-06T07:28:17;99731.84;;;9.38;34.48
51245;BME280;37840;47.562;18.738;2023-04-06T07:30:43;99725.06;;;9.07;34.38
51245;BME280;37840;47.562;18.738;2023-04-06T07:33:09;99732.50;;;8.88;34.89
51245;BME280;37840;47.562;18.738;2023-04-06T07:35:34;99726.06;;;8.50;36.01
51245;BME280;37840;47.562;18.738;2023-04-06T07:38:02;99732.84;;;7.97;36.37
51245;BME280;37840;47.562;18.738;2023-04-06T07:40:28;99725.81;;;7.51;37.12
51245;BME280;37840;47.562;18.738;2023-04-06T07:42:53;99723.59;;;7.29;37.75
51245;BME280;37840;47.562;18.738;2023-04-06T07:45:19;99714.25;;;6.92;38.71
51245;BME280;37840;47.562;18.738;2023-04-06T07:47:45;99718.09;;;7.02;38.38
51245;BME280;37840;47.562;18.738;2023-04-06T07:50:11;99719.87;;;6.54;39.44
51245;BME280;37840;47.562;18.738;2023-04-06T07:52:37;99722.91;;;6.30;39.56
51245;BME280;37840;47.562;18.738;2023-04-06T07:55:03;99718.91;;;6.39;38.50
51245;BME280;37840;47.562;18.738;2023-04-06T07:57:29;99718.94;;;6.55;40.02
51245;BME280;37840;47.562;18.738;2023-04-06T07:59:55;99712.81;;;6.70;38.97
51245;BME280;37840;47.562;18.738;2023-04-06T08:02:21;99713.06;;;6.66;38.78
51245;BME280;37840;47.562;18.738;2023-04-06T08:04:47;99719.78;;;6.87;39.58
51245;BME280;37840;47.562;18.738;2023-04-06T08:07:12;99719.97;;;7.00;38.91
51245;BME280;37840;47.562;18.738;2023-04-06T08:09:38;99717.88;;;7.05;38.92
51245;BME280;37840;47.562;18.738;2023-04-06T08:12:04;99719.19;;;7.14;39.03
51245;BME280;37840;47.562;18.738;2023-04-06T08:14:29;99706.69;;;7.16;38.17
51245;BME280;37840;47.562;18.738;2023-04-06T08:16:55;99712.09;;;7.14;38.30
51245;BME280;37840;47.562;18.738;2023-04-06T08:19:21;99710.78;;;7.22;38.93
51245;BME280;37840;47.562;18.738;2023-04-06T08:21:47;99714.97;;;7.26;39.48
51245;BME280;37840;47.562;18.738;2023-04-06T08:24:13;99694.44;;;7.45;37.95
51245;BME280;37840;47.562;18.738;2023-04-06T08:26:38;99707.38;;;7.50;37.66
51245;BME280;37840;47.562;18.738;2023-04-06T08:29:04;99705.41;;;7.53;37.79
51245;BME280;37840;47.562;18.738;2023-04-06T08:31:35;99696.25;;;6.99;37.58
51245;BME280;37840;47.562;18.738;2023-04-06T08:34:02;99698.31;;;6.78;39.19
51245;BME280;37840;47.562;18.738;2023-04-06T08:36:29;99693.28;;;6.73;38.63
51245;BME280;37840;47.562;18.738;2023-04-06T08:38:54;99692.69;;;6.84;38.14
51245;BME280;37840;47.562;18.738;2023-04-06T08:41:20;99691.09;;;7.11;39.06
51245;BME280;37840;47.562;18.738;2023-04-06T08:43:47;99696.50;;;7.10;38.65
51245;BME280;37840;47.562;18.738;2023-04-06T08:46:13;99682.75;;;7.03;38.51
51245;BME280;37840;47.562;18.738;2023-04-06T08:48:40;99687.53;;;7.12;38.56
51245;BME280;37840;47.562;18.738;2023-04-06T08:51:07;99678.53;;;6.85;38.36
51245;BME280;37840;47.562;18.738;2023-04-06T08:53:33;99685.34;;;6.73;38.12
51245;BME280;37840;47.562;18.738;2023-04-06T08:55:59;99675.03;;;6.68;38.65
51245;BME280;37840;47.562;18.738;2023-04-06T08:58:26;99683.06;;;6.83;39.13
51245;BME280;37840;47.562;18.738;2023-04-06T09:00:53;99673.34;;;6.67;37.76
51245;BME280;37840;47.562;18.738;2023-04-06T09:03:19;99674.47;;;6.63;38.70
51245;BME280;37840;47.562;18.738;2023-04-06T09:05:45;99672.59;;;6.65;38.88
51245;BME280;37840;47.562;18.738;2023-04-06T09:08:12;99663.72;;;6.66;37.74
51245;BME280;37840;47.562;18.738;2023-04-06T09:10:41;99672.06;;;6.74;37.78
51245;BME280;37840;47.562;18.738;2023-04-06T09:13:07;99670.34;;;6.89;38.21
51245;BME280;37840;47.562;18.738;2023-04-06T09:15:34;99662.25;;;7.23;38.44
51245;BME280;37840;47.562;18.738;2023-04-06T09:17:59;99663.34;;;7.49;37.18
51245;BME280;37840;47.562;18.738;2023-04-06T09:20:26;99660.09;;;7.74;37.60
51245;BME280;37840;47.562;18.738;2023-04-06T09:22:53;99653.09;;;8.02;36.75
51245;BME280;37840;47.562;18.738;2023-04-06T09:25:20;99652.34;;;8.00;36.76
51245;BME280;37840;47.562;18.738;2023-04-06T09:27:46;99650.84;;;8.10;37.26
51245;BME280;37840;47.562;18.738;2023-04-06T09:30:12;99645.78;;;8.20;36.39
51245;BME280;37840;47.562;18.738;2023-04-06T09:35:12;99654.12;;;8.13;35.56
51245;BME280;37840;47.562;18.738;2023-04-06T09:37:38;99639.09;;;8.00;37.10
51245;BME280;37840;47.562;18.738;2023-04-06T09:40:04;99638.16;;;8.01;35.75
51245;BME280;37840;47.562;18.738;2023-04-06T09:42:30;99638.16;;;8.01;36.39
51245;BME280;37840;47.562;18.738;2023-04-06T09:44:56;99645.34;;;7.99;35.07
51245;BME280;37840;47.562;18.738;2023-04-06T09:47:22;99651.94;;;7.77;36.31
51245;BME280;37840;47.562;18.738;2023-04-06T09:49:55;99647.91;;;7.71;36.86
51245;BME280;37840;47.562;18.738;2023-04-06T09:52:21;99649.38;;;7.75;36.90
51245;BME280;37840;47.562;18.738;2023-04-06T09:54:49;99638.44;;;7.82;36.84
51245;BME280;37840;47.562;18.738;2023-04-06T09:57:21;99634.81;;;7.40;36.48
51245;BME280;37840;47.562;18.738;2023-04-06T10:02:24;99640.16;;;7.24;37.56
51245;BME280;37840;47.562;18.738;2023-04-06T10:04:56;99647.47;;;7.49;36.29
51245;BME280;37840;47.562;18.738;2023-04-06T10:07:24;99636.31;;;7.29;36.94
51245;BME280;37840;47.562;18.738;2023-04-06T10:09:51;99645.28;;;7.41;37.17
51245;BME280;37840;47.562;18.738;2023-04-06T10:12:18;99642.69;;;7.70;37.30
51245;BME280;37840;47.562;18.738;2023-04-06T10:14:45;99631.75;;;7.76;36.22
51245;BME280;37840;47.562;18.738;2023-04-06T10:17:10;99639.84;;;7.87;36.43
51245;BME280;37840;47.562;18.738;2023-04-06T10:19:47;99629.66;;;7.95;36.59
51245;BME280;37840;47.562;18.738;2023-04-06T10:22:18;99625.44;;;8.34;36.86
51245;BME280;37840;47.562;18.738;2023-04-06T10:24:46;99626.41;;;8.19;36.24
51245;BME280;37840;47.562;18.738;2023-04-06T10:27:12;99629.22;;;8.30;35.60
51245;BME280;37840;47.562;18.738;2023-04-06T10:29:47;99622.47;;;8.12;36.34
51245;BME280;37840;47.562;18.738;2023-04-06T10:32:14;99623.44;;;8.38;37.99
51245;BME280;37840;47.562;18.738;2023-04-06T10:34:40;99609.84;;;8.44;36.63
51245;BME280;37840;47.562;18.738;2023-04-06T10:37:15;99614.00;;;8.34;36.29
51245;BME280;37840;47.562;18.738;2023-04-06T10:40:17;99610.09;;;8.40;36.56
51245;BME280;37840;47.562;18.738;2023-04-06T10:42:37;99604.72;;;8.41;36.59
51245;BME280;37840;47.562;18.738;2023-04-06T10:45:07;99614.09;;;8.47;36.58
51245;BME280;37840;47.562;18.738;2023-04-06T10:47:42;99614.28;;;8.44;37.36
51245;BME280;37840;47.562;18.738;2023-04-06T10:50:07;99603.22;;;8.64;36.91
51245;BME280;37840;47.562;18.738;2023-04-06T10:52:33;99606.69;;;8.79;36.59
51245;BME280;37840;47.562;18.738;2023-04-06T10:54:59;99605.03;;;8.91;36.71
51245;BME280;37840;47.562;18.738;2023-04-06T10:57:28;99600.56;;;8.91;36.22
51245;BME280;37840;47.562;18.738;2023-04-06T10:59:54;99594.12;;;8.95;36.79
51245;BME280;37840;47.562;18.738;2023-04-06T11:02:20;99599.03;;;9.14;36.39
51245;BME280;37840;47.562;18.738;2023-04-06T11:04:56;99584.44;;;8.94;36.52
51245;BME280;37840;47.562;18.738;2023-04-06T11:07:26;99580.28;;;8.90;37.06
51245;BME280;37840;47.562;18.738;2023-04-06T11:09:52;99574.31;;;9.01;36.30
51245;BME280;37840;47.562;18.738;2023-04-06T11:12:22;99582.28;;;9.14;35.28
51245;BME280;37840;47.562;18.738;2023-04-06T11:14:52;99581.94;;;9.06;35.58
51245;BME280;37840;47.562;18.738;2023-04-06T11:17:24;99572.50;;;9.02;35.76
51245;BME280;37840;47.562;18.738;2023-04-06T11:19:50;99579.88;;;8.96;35.10
51245;BME280;37840;47.562;18.738;2023-04-06T11:22:16;99580.50;;;8.87;35.60
51245;BME280;37840;47.562;18.738;2023-04-06T11:27:26;99576.97;;;8.74;35.21
51245;BME280;37840;47.562;18.738;2023-04-06T11:32:42;99574.22;;;8.75;35.31
51245;BME280;37840;47.562;18.738;2023-04-06T11:35:23;99568.38;;;8.70;35.15
51245;BME280;37840;47.562;18.738;2023-04-06T11:37:49;99569.00;;;8.61;34.57
51245;BME280;37840;47.562;18.738;2023-04-06T11:42:51;99561.53;;;8.53;35.21
51245;BME280;37840;47.562;18.738;2023-04-06T11:48:19;99564.28;;;8.52;34.87
51245;BME280;37840;47.562;18.738;2023-04-06T11:50:48;99554.78;;;8.62;35.67
51245;BME280;37840;47.562;18.738;2023-04-06T11:53:20;99558.87;;;8.53;35.38
51245;BME280;37840;47.562;18.738;2023-04-06T11:55:46;99551.37;;;8.60;35.87
51245;BME280;37840;47.562;18.738;2023-04-06T11:58:12;99547.69;;;8.75;36.02
51245;BME280;37840;47.562;18.738;2023-04-06T12:00:38;99558.63;;;8.71;35.30
51245;BME280;37840;47.562;18.738;2023-04-06T12:03:04;99551.94;;;8.65;34.65
51245;BME280;37840;47.562;18.738;2023-04-06T12:05:29;99549.16;;;8.67;35.15
51245;BME280;37840;47.562;18.738;2023-04-06T12:07:55;99551.09;;;8.77;36.21
51245;BME280;37840;47.562;18.738;2023-04-06T12:10:22;99544.78;;;8.53;35.03
51245;BME280;37840;47.562;18.738;2023-04-06T12:12:47;99552.75;;;8.53;35.41
51245;BME280;37840;47.562;18.738;2023-04-06T12:15:13;99552.75;;;8.53;34.88
51245;BME280;37840;47.562;18.738;2023-04-06T12:17:39;99547.75;;;8.48;36.05
51245;BME280;37840;47.562;18.738;2023-04-06T12:20:05;99545.94;;;8.49;34.84
51245;BME280;37840;47.562;18.738;2023-04-06T12:22:31;99548.28;;;8.39;34.92
51245;BME280;37840;47.562;18.738;2023-04-06T12:24:56;99545.50;;;8.28;34.76
51245;BME280;37840;47.562;18.738;2023-04-06T12:27:22;99541.09;;;8.14;35.66
51245;BME280;37840;47.562;18.738;2023-04-06T12:29:48;99550.44;;;8.20;35.38
51245;BME280;37840;47.562;18.738;2023-04-06T12:32:13;99544.09;;;8.22;35.59
51245;BME280;37840;47.562;18.738;2023-04-06T12:34:40;99546.78;;;8.08;34.76
51245;BME280;37840;47.562;18.738;2023-04-06T12:37:05;99544.53;;;8.02;35.28
51245;BME280;37840;47.562;18.738;2023-04-06T12:39:31;99544.25;;;7.92;35.18
51245;BME280;37840;47.562;18.738;2023-04-06T12:41:57;99548.03;;;7.88;35.36
51245;BME280;37840;47.562;18.738;2023-04-06T12:44:23;99549.31;;;7.82;35.64
51245;BME280;37840;47.562;18.738;2023-04-06T12:46:48;99532.53;;;7.96;35.57
51245;BME280;37840;47.562;18.738;2023-04-06T12:49:15;99548.25;;;7.85;35.85
51245;BME280;37840;47.562;18.738;2023-04-06T12:51:42;99541.03;;;8.01;36.14
51245;BME280;37840;47.562;18.738;2023-04-06T12:54:08;99540.41;;;8.25;35.63
51245;BME280;37840;47.562;18.738;2023-04-06T12:56:34;99538.59;;;8.25;35.13
51245;BME280;37840;47.562;18.738;2023-04-06T12:59:00;99536.31;;;8.33;35.84
51245;BME280;37840;47.562;18.738;2023-04-06T13:01:26;99533.28;;;8.40;35.12
51245;BME280;37840;47.562;18.738;2023-04-06T13:03:53;99522.28;;;8.46;34.89
51245;BME280;37840;47.562;18.738;2023-04-06T13:06:19;99521.78;;;8.53;36.33